Terminal Aerodrome Forecast
Issued by NWS

Home | Current Version | Previous Version | Graphics & Text | Print | Product List | Glossary On
Versions: 1 2 3 4 5 6 7 8 9 10 11 12 13 14 15 16 17
000
FTUS43 KMPX 211100
TAFRNH
TAF
KRNH 211139Z 2112/2212 09004KT P6SM SKC
      TEMPO 2112/2114 1SM BR VV005
     FM211600 12009KT P6SM SKC
     FM220000 14007KT P6SM SKC=

USA.gov is the U.S. government's official web portal to all federal, state and local government web resources and services.